createdAt,value
2019-02-28T00:01:53.487Z,55.74
2019-02-28T00:04:32.014Z,56.70
2019-02-28T00:07:04.799Z,56.70
2019-02-28T00:09:39.648Z,56.49
2019-02-28T00:12:14.340Z,56.57
2019-02-28T00:14:49.031Z,56.77
2019-02-28T00:17:23.595Z,56.51
2019-02-28T00:19:58.679Z,56.03
2019-02-28T00:22:33.739Z,56.03
2019-02-28T00:25:07.481Z,56.98
2019-02-28T00:27:42.064Z,57.49
2019-02-28T00:30:16.972Z,57.49
2019-02-28T00:32:51.634Z,58.21
2019-02-28T00:35:28.536Z,57.67
2019-02-28T00:38:03.320Z,57.47
2019-02-28T00:40:38.693Z,57.47
2019-02-28T00:43:14.146Z,58.28
2019-02-28T00:45:48.769Z,58.25
2019-02-28T00:48:23.325Z,58.59
2019-02-28T00:50:58.569Z,58.74
2019-02-28T00:53:33.647Z,57.36
2019-02-28T00:56:07.610Z,58.24
2019-02-28T00:58:42.616Z,59.17
2019-02-28T01:01:17.112Z,59.29
2019-02-28T01:03:53.675Z,59.29
2019-02-28T01:06:27.540Z,60.42
2019-02-28T01:09:04.306Z,60.03
2019-02-28T01:11:40.525Z,59.09
2019-02-28T01:14:15.499Z,59.78
2019-02-28T01:16:53.015Z,61.00
2019-02-28T01:19:27.332Z,60.25
2019-02-28T01:22:02.584Z,59.45
2019-02-28T01:24:36.462Z,59.89
2019-02-28T01:27:10.816Z,59.52
2019-02-28T01:29:45.436Z,60.42
2019-02-28T01:32:19.778Z,60.21
2019-02-28T01:34:54.321Z,59.91
2019-02-28T01:37:29.305Z,59.25
2019-02-28T01:40:05.243Z,59.18
2019-02-28T01:42:41.524Z,58.51
2019-02-28T01:45:18.109Z,58.79
2019-02-28T01:47:52.903Z,58.66
2019-02-28T01:50:29.627Z,58.90
2019-02-28T01:53:04.349Z,58.81
2019-02-28T01:55:42.069Z,59.84
2019-02-28T01:58:19.668Z,59.63
2019-02-28T02:00:53.753Z,60.42
2019-02-28T02:03:29.804Z,61.25
2019-02-28T02:06:04.701Z,61.33
2019-02-28T02:08:42.531Z,61.37
2019-02-28T02:11:20.120Z,61.33
2019-02-28T02:13:57.800Z,61.33
2019-02-28T02:16:32.650Z,61.43
2019-02-28T02:19:06.607Z,62.77
2019-02-28T02:21:41.308Z,62.88
2019-02-28T02:24:16.423Z,62.88
2019-02-28T02:26:50.835Z,63.18
2019-02-28T02:29:32.399Z,63.09
2019-02-28T02:32:08.909Z,63.92
2019-02-28T02:34:43.770Z,64.16
2019-02-28T02:37:19.038Z,64.22
2019-02-28T02:39:53.524Z,63.71
2019-02-28T02:42:28.045Z,63.87
2019-02-28T02:45:05.177Z,63.87
2019-02-28T02:47:40.755Z,63.58
2019-02-28T02:50:15.596Z,63.92
2019-02-28T02:52:52.834Z,65.06
2019-02-28T02:55:28.968Z,65.06
2019-02-28T02:58:05.384Z,64.89
2019-02-28T03:00:41.035Z,64.89
2019-02-28T03:03:15.840Z,65.04
2019-02-28T03:05:50.331Z,64.70
2019-02-28T03:08:25.764Z,63.40
2019-02-28T03:11:01.476Z,62.78
2019-02-28T03:13:41.935Z,62.52
2019-02-28T03:16:13.426Z,61.42
2019-02-28T03:18:47.944Z,62.00
2019-02-28T03:21:22.323Z,61.25
2019-02-28T03:24:00.055Z,61.12
2019-02-28T03:26:41.605Z,60.55
2019-02-28T03:29:12.811Z,60.99
2019-02-28T03:31:56.736Z,61.97
2019-02-28T03:34:26.226Z,61.22
2019-02-28T03:37:00.914Z,61.22
2019-02-28T03:39:36.191Z,61.83
2019-02-28T03:42:11.819Z,61.77
2019-02-28T03:44:56.667Z,61.68
2019-02-28T03:47:26.059Z,62.58
2019-02-28T03:50:01.130Z,62.58
2019-02-28T03:52:41.782Z,63.18
2019-02-28T03:55:12.322Z,64.23
2019-02-28T03:57:46.821Z,63.99
2019-02-28T04:00:21.350Z,64.15
2019-02-28T04:02:58.449Z,64.56
2019-02-28T04:05:32.681Z,64.94
2019-02-28T04:08:11.504Z,65.06
2019-02-28T04:10:46.527Z,64.56
2019-02-28T04:13:20.765Z,63.97
2019-02-28T04:16:07.614Z,64.37
2019-02-28T04:18:31.522Z,64.29
2019-02-28T04:21:10.154Z,63.97
2019-02-28T04:23:42.991Z,63.97
2019-02-28T04:26:17.554Z,64.56
2019-02-28T04:28:55.149Z,64.53
2019-02-28T04:31:32.798Z,64.53
2019-02-28T04:34:13.034Z,64.60
2019-02-28T04:36:44.017Z,64.90
2019-02-28T04:39:18.686Z,64.74
2019-02-28T04:41:53.890Z,64.68
2019-02-28T04:44:29.113Z,65.96
2019-02-28T04:47:06.856Z,65.15
2019-02-28T04:49:40.319Z,65.10
2019-02-28T04:52:14.845Z,66.06
2019-02-28T04:54:49.461Z,67.43
2019-02-28T04:57:24.529Z,66.57
2019-02-28T04:59:59.636Z,66.62
2019-02-28T05:02:38.229Z,66.62
2019-02-28T05:05:14.126Z,68.36
2019-02-28T05:07:48.832Z,67.47
2019-02-28T05:10:23.151Z,67.83
2019-02-28T05:12:58.230Z,67.94
2019-02-28T05:15:38.536Z,65.99
2019-02-28T05:18:13.023Z,65.99
2019-02-28T05:20:48.704Z,65.91
2019-02-28T05:23:23.318Z,65.89
2019-02-28T05:25:58.041Z,65.56
2019-02-28T05:28:32.648Z,64.96
2019-02-28T05:31:06.721Z,66.58
2019-02-28T05:33:42.059Z,67.02
2019-02-28T05:36:17.644Z,65.62
2019-02-28T05:38:53.553Z,65.42
2019-02-28T05:41:28.059Z,66.02
2019-02-28T05:44:03.327Z,66.42
2019-02-28T05:46:39.833Z,67.34
2019-02-28T05:49:14.848Z,67.34
2019-02-28T05:51:52.428Z,66.62
2019-02-28T05:54:26.979Z,67.13
2019-02-28T05:57:04.577Z,66.12
2019-02-28T05:59:38.216Z,65.76
2019-02-28T06:02:14.739Z,65.76
2019-02-28T06:04:50.594Z,65.38
2019-02-28T06:07:25.936Z,65.99
2019-02-28T06:10:01.652Z,65.99
2019-02-28T06:12:36.517Z,65.12
2019-02-28T06:15:11.292Z,64.92
2019-02-28T06:17:45.895Z,65.07
2019-02-28T06:20:22.880Z,64.88
2019-02-28T06:22:58.184Z,65.77
2019-02-28T06:25:32.785Z,66.09
2019-02-28T06:28:07.547Z,65.21
2019-02-28T06:30:42.778Z,65.30
2019-02-28T06:33:18.132Z,65.95
2019-02-28T06:35:53.739Z,64.88
2019-02-28T06:38:51.487Z,64.87
2019-02-28T06:41:27.577Z,64.37
2019-02-28T06:44:04.328Z,64.49
2019-02-28T06:46:41.975Z,62.79
2019-02-28T06:49:21.556Z,62.79
2019-02-28T06:51:57.885Z,63.04
2019-02-28T06:54:32.498Z,63.04
2019-02-28T06:57:06.764Z,62.74
2019-02-28T06:59:41.708Z,62.85
2019-02-28T07:02:16.651Z,63.17
2019-02-28T07:04:51.311Z,62.75
2019-02-28T07:07:26.165Z,62.09
2019-02-28T07:10:01.001Z,62.63
2019-02-28T07:12:35.618Z,61.34
2019-02-28T07:15:10.466Z,61.69
2019-02-28T07:17:46.298Z,61.14
2019-02-28T07:20:21.708Z,61.14
2019-02-28T07:22:56.309Z,60.60
2019-02-28T07:25:33.539Z,60.48
2019-02-28T07:28:08.776Z,59.79
2019-02-28T07:30:43.317Z,59.79
2019-02-28T07:33:18.501Z,58.91
2019-02-28T07:35:53.597Z,58.58
2019-02-28T07:38:28.843Z,58.58
2019-02-28T07:41:06.420Z,57.38
2019-02-28T07:43:45.913Z,57.52
2019-02-28T07:46:17.462Z,56.56
2019-02-28T07:48:52.952Z,56.54
2019-02-28T07:51:27.795Z,56.54
2019-02-28T07:54:04.032Z,56.56
2019-02-28T07:56:43.089Z,55.53
2019-02-28T07:59:15.817Z,55.04
2019-02-28T08:01:51.089Z,54.55
2019-02-28T08:04:26.043Z,54.39
2019-02-28T08:07:01.630Z,53.77
2019-02-28T08:09:36.854Z,53.21
2019-02-28T08:12:12.993Z,53.28
2019-02-28T08:14:48.777Z,52.33
2019-02-28T08:17:23.671Z,51.14
2019-02-28T08:19:58.733Z,46.93
2019-02-28T08:22:34.508Z,36.68
2019-02-28T08:25:11.112Z,30.57
2019-02-28T08:27:46.161Z,30.57
2019-02-28T08:30:22.767Z,26.21
2019-02-28T08:32:57.477Z,23.87
2019-02-28T08:35:34.685Z,20.47
2019-02-28T08:38:08.600Z,20.47
2019-02-28T08:40:42.458Z,19.64
2019-02-28T08:43:26.652Z,18.42
2019-02-28T08:45:53.582Z,17.09
2019-02-28T08:48:31.594Z,17.38
2019-02-28T08:51:03.745Z,15.77
2019-02-28T08:53:38.138Z,16.39
2019-02-28T08:56:14.062Z,14.96
2019-02-28T08:58:48.646Z,15.22
2019-02-28T09:01:22.270Z,13.71
2019-02-28T09:03:59.805Z,13.71
2019-02-28T09:06:33.313Z,12.92
2019-02-28T09:09:11.871Z,12.56
2019-02-28T09:11:46.515Z,12.80
2019-02-28T09:14:20.487Z,13.70
2019-02-28T09:16:55.174Z,13.70
2019-02-28T09:19:32.578Z,12.95
2019-02-28T09:22:06.305Z,12.42
2019-02-28T09:24:46.738Z,12.16
2019-02-28T09:27:21.508Z,10.94
2019-02-28T09:29:55.583Z,11.27
2019-02-28T09:32:31.164Z,11.27
2019-02-28T09:35:12.253Z,10.62
2019-02-28T09:37:42.424Z,10.65
2019-02-28T09:40:17.063Z,10.92
2019-02-28T09:42:52.014Z,10.69
2019-02-28T09:45:26.619Z,10.56
2019-02-28T09:48:01.871Z,10.63
2019-02-28T09:50:37.103Z,10.63
2019-02-28T09:53:15.541Z,9.83
2019-02-28T09:55:48.107Z,9.95
2019-02-28T09:58:22.547Z,9.95
2019-02-28T10:00:57.054Z,9.31
2019-02-28T10:03:32.175Z,9.31
2019-02-28T10:06:06.775Z,8.87
2019-02-28T10:08:41.133Z,8.95
2019-02-28T10:11:15.647Z,8.81
2019-02-28T10:13:49.537Z,9.33
2019-02-28T10:16:25.863Z,9.33
2019-02-28T10:19:00.796Z,8.54
2019-02-28T10:21:36.454Z,8.67
2019-02-28T10:24:12.561Z,8.82
2019-02-28T10:26:48.195Z,8.64
2019-02-28T10:29:23.804Z,8.64
2019-02-28T10:31:59.828Z,9.61
2019-02-28T10:34:35.425Z,9.93
2019-02-28T10:37:09.164Z,9.78
2019-02-28T10:39:43.858Z,10.06
2019-02-28T10:42:18.684Z,10.38
2019-02-28T10:44:53.416Z,10.62
2019-02-28T10:47:29.574Z,10.32
2019-02-28T10:50:06.451Z,10.49
2019-02-28T10:52:44.040Z,9.87
2019-02-28T10:55:22.584Z,9.87
2019-02-28T10:57:58.134Z,9.85
2019-02-28T11:00:33.807Z,9.95
2019-02-28T11:03:08.648Z,9.16
2019-02-28T11:05:44.690Z,8.54
2019-02-28T11:08:19.232Z,8.32
2019-02-28T11:10:53.981Z,7.78
2019-02-28T11:13:31.703Z,7.78
2019-02-28T11:16:04.864Z,8.15
2019-02-28T11:18:42.749Z,7.67
2019-02-28T11:21:17.672Z,7.86
2019-02-28T11:23:52.117Z,8.36
2019-02-28T11:26:26.804Z,8.59
2019-02-28T11:29:03.143Z,8.47
2019-02-28T11:31:37.314Z,9.60
2019-02-28T11:34:14.983Z,8.93
2019-02-28T11:36:49.699Z,9.33
2019-02-28T11:39:24.484Z,9.59
2019-02-28T11:42:00.074Z,9.94
2019-02-28T11:44:34.936Z,9.94
2019-02-28T11:47:11.164Z,9.87
2019-02-28T11:49:45.864Z,10.10
2019-02-28T11:52:20.697Z,9.43
2019-02-28T11:54:57.833Z,9.52
2019-02-28T11:57:32.704Z,9.09
2019-02-28T12:00:17.668Z,9.45
2019-02-28T12:02:59.871Z,9.96
2019-02-28T12:05:33.316Z,9.55
2019-02-28T12:08:10.410Z,9.56
2019-02-28T12:10:44.535Z,9.88
2019-02-28T12:13:20.472Z,9.14
2019-02-28T12:15:57.268Z,9.86
2019-02-28T12:18:31.823Z,9.71
2019-02-28T12:21:06.550Z,9.42
2019-02-28T12:23:41.029Z,9.96
2019-02-28T12:26:17.697Z,10.65
2019-02-28T12:28:55.554Z,11.33
2019-02-28T12:31:32.134Z,11.92
2019-02-28T12:34:06.814Z,11.92
2019-02-28T12:36:41.491Z,12.04
2019-02-28T12:39:18.548Z,11.52
2019-02-28T12:41:52.800Z,11.88
2019-02-28T12:44:27.851Z,12.83
2019-02-28T12:47:03.293Z,13.39
2019-02-28T12:49:38.177Z,13.36
2019-02-28T12:52:14.584Z,13.36
2019-02-28T12:54:49.617Z,12.77
2019-02-28T12:57:25.338Z,12.68
2019-02-28T13:00:00.322Z,12.71
2019-02-28T13:02:34.813Z,13.31
2019-02-28T13:05:14.864Z,13.07
2019-02-28T13:07:45.495Z,13.60
2019-02-28T13:10:26.854Z,14.18
2019-02-28T13:13:06.194Z,14.82
2019-02-28T13:15:34.797Z,14.82
2019-02-28T13:18:09.614Z,15.26
2019-02-28T13:20:44.726Z,16.05
2019-02-28T13:23:19.661Z,16.34
2019-02-28T13:25:59.160Z,17.18
2019-02-28T13:28:29.960Z,17.18
2019-02-28T13:31:04.711Z,17.47
2019-02-28T13:33:39.320Z,17.37
2019-02-28T13:36:13.831Z,17.54
2019-02-28T13:38:49.401Z,17.72
2019-02-28T13:41:26.580Z,18.17
2019-02-28T13:44:00.443Z,18.22
2019-02-28T13:46:34.522Z,18.24
2019-02-28T13:49:08.441Z,18.60
2019-02-28T13:51:44.918Z,18.60
2019-02-28T13:54:19.648Z,19.44
2019-02-28T13:56:56.273Z,20.37
2019-02-28T13:59:31.876Z,20.33
2019-02-28T14:02:08.670Z,20.13
2019-02-28T14:04:42.446Z,20.75
2019-02-28T14:07:16.271Z,22.02
2019-02-28T14:09:57.016Z,22.02
2019-02-28T14:12:28.849Z,22.10
2019-02-28T14:15:04.094Z,22.56
2019-02-28T14:17:40.315Z,22.91
2019-02-28T14:20:18.450Z,22.91
2019-02-28T14:22:53.152Z,23.06
2019-02-28T14:25:27.893Z,23.06
2019-02-28T14:28:02.511Z,23.35
2019-02-28T14:30:37.048Z,23.47
2019-02-28T14:33:16.085Z,23.47
2019-02-28T14:35:50.905Z,23.43
2019-02-28T14:38:26.196Z,23.72
2019-02-28T14:41:00.811Z,24.02
2019-02-28T14:43:36.677Z,23.68
2019-02-28T14:46:11.107Z,22.98
2019-02-28T14:48:45.869Z,22.38
2019-02-28T14:51:20.800Z,22.02
2019-02-28T14:53:56.581Z,21.74
2019-02-28T14:56:31.105Z,22.10
2019-02-28T14:59:05.611Z,22.10
2019-02-28T15:01:39.515Z,22.53
2019-02-28T15:04:14.433Z,22.88
2019-02-28T15:06:49.559Z,22.88
2019-02-28T15:09:24.207Z,22.71
2019-02-28T15:12:00.084Z,22.71
2019-02-28T15:14:35.091Z,23.07
2019-02-28T15:17:09.650Z,23.64
2019-02-28T15:19:44.355Z,23.91
2019-02-28T15:22:21.002Z,23.65
2019-02-28T15:24:55.701Z,23.42
2019-02-28T15:27:30.772Z,23.99
2019-02-28T15:30:11.014Z,23.96
2019-02-28T15:32:45.865Z,24.30
2019-02-28T15:35:21.034Z,24.08
2019-02-28T15:37:57.136Z,23.96
2019-02-28T15:41:44.099Z,25.01
2019-02-28T15:44:19.014Z,24.79
2019-02-28T15:46:55.703Z,25.18
2019-02-28T15:49:30.438Z,25.23
2019-02-28T15:52:06.210Z,24.97
2019-02-28T15:54:40.795Z,25.09
2019-02-28T15:57:15.323Z,24.83
2019-02-28T15:59:50.486Z,24.68
2019-02-28T16:02:25.989Z,25.26
2019-02-28T16:05:05.884Z,25.67
2019-02-28T16:07:37.308Z,25.54
2019-02-28T16:10:19.471Z,25.54
2019-02-28T16:12:55.292Z,26.01
2019-02-28T16:15:30.117Z,26.78
2019-02-28T16:18:04.772Z,27.76
2019-02-28T16:20:42.683Z,29.18
2019-02-28T16:23:17.322Z,29.79
2019-02-28T16:25:52.031Z,30.76
2019-02-28T16:28:26.875Z,31.62
2019-02-28T16:31:03.333Z,32.06
2019-02-28T16:33:38.215Z,32.54
2019-02-28T16:36:13.104Z,32.54
2019-02-28T16:38:48.102Z,32.79
2019-02-28T16:41:23.069Z,33.00
2019-02-28T16:43:58.810Z,33.04
2019-02-28T16:46:33.546Z,33.13
2019-02-28T16:49:10.580Z,33.59
2019-02-28T16:51:44.792Z,33.59
2019-02-28T16:54:22.564Z,33.89
2019-02-28T16:56:57.058Z,33.94
2019-02-28T16:59:32.477Z,34.08
2019-02-28T17:02:07.175Z,35.03
2019-02-28T17:04:42.607Z,35.03
2019-02-28T17:07:16.595Z,35.54
2019-02-28T17:09:51.322Z,35.81
2019-02-28T17:12:59.624Z,35.89
2019-02-28T17:15:44.463Z,36.45
2019-02-28T17:18:21.397Z,36.20
2019-02-28T17:20:56.497Z,36.30
2019-02-28T17:23:33.785Z,36.13
2019-02-28T17:26:07.900Z,36.13
2019-02-28T17:28:51.028Z,35.69
2019-02-28T17:31:48.195Z,35.43
2019-02-28T17:34:24.516Z,36.38
2019-02-28T17:36:59.136Z,36.38
2019-02-28T17:39:33.499Z,36.35
2019-02-28T17:42:14.864Z,37.78
2019-02-28T17:45:27.633Z,37.78
2019-02-28T17:49:10.507Z,37.89
2019-02-28T17:52:24.919Z,37.69
2019-02-28T17:56:09.670Z,37.69
2019-02-28T17:59:39.002Z,37.14
2019-02-28T18:03:52.157Z,38.39
2019-02-28T18:07:38.986Z,38.18
2019-02-28T18:11:40.822Z,37.97
2019-02-28T18:15:25.270Z,38.67
2019-02-28T18:19:37.078Z,39.43
2019-02-28T18:23:10.563Z,40.49
2019-02-28T18:26:50.111Z,40.58
2019-02-28T18:30:47.187Z,40.58
2019-02-28T18:33:21.806Z,41.10
2019-02-28T18:35:57.869Z,41.82
2019-02-28T18:38:35.665Z,42.65
2019-02-28T18:41:10.059Z,42.72
2019-02-28T18:43:45.517Z,42.58
2019-02-28T18:46:21.037Z,43.68
2019-02-28T18:48:56.546Z,43.68
2019-02-28T18:51:30.843Z,44.38
2019-02-28T18:54:05.628Z,44.38
2019-02-28T18:56:39.687Z,45.48
2019-02-28T18:59:15.301Z,45.26
2019-02-28T19:01:49.906Z,45.86
2019-02-28T19:04:24.430Z,46.38
2019-02-28T19:06:59.149Z,46.13
2019-02-28T19:09:34.052Z,46.29
2019-02-28T19:12:09.063Z,46.33
2019-02-28T19:14:44.341Z,46.24
2019-02-28T19:17:19.110Z,46.24
2019-02-28T19:19:54.517Z,46.48
2019-02-28T19:22:29.295Z,45.76
2019-02-28T19:25:04.237Z,45.76
2019-02-28T19:27:41.517Z,46.66
2019-02-28T19:30:16.932Z,45.93
2019-02-28T19:32:52.341Z,45.84
2019-02-28T19:35:27.492Z,45.71
2019-02-28T19:38:02.549Z,45.70
2019-02-28T19:40:36.654Z,45.76
2019-02-28T19:43:11.977Z,45.76
2019-02-28T19:45:47.586Z,46.20
2019-02-28T19:48:24.786Z,46.51
2019-02-28T19:51:00.330Z,46.97
2019-02-28T19:53:35.141Z,47.27
2019-02-28T19:56:09.831Z,46.72
2019-02-28T19:58:44.560Z,46.53
2019-02-28T20:01:19.316Z,46.51
2019-02-28T20:03:53.752Z,46.00
2019-02-28T20:06:28.840Z,45.94
2019-02-28T20:09:05.966Z,46.22
2019-02-28T20:11:41.144Z,46.17
2019-02-28T20:14:16.365Z,45.97
2019-02-28T20:16:52.121Z,45.47
2019-02-28T20:19:27.879Z,46.60
2019-02-28T20:22:02.708Z,46.01
2019-02-28T20:24:37.540Z,45.50
2019-02-28T20:27:13.320Z,45.29
2019-02-28T20:29:54.866Z,45.29
2019-02-28T20:32:25.313Z,44.96
2019-02-28T20:35:00.371Z,44.71
2019-02-28T20:37:35.393Z,44.32
2019-02-28T20:40:14.099Z,44.32
2019-02-28T20:42:49.328Z,44.10
2019-02-28T20:45:23.931Z,43.69
2019-02-28T20:47:59.125Z,43.08
2019-02-28T20:50:38.649Z,42.69
2019-02-28T20:53:12.483Z,43.44
2019-02-28T20:55:47.313Z,42.83
2019-02-28T20:58:21.838Z,42.83
2019-02-28T21:00:56.771Z,41.94
2019-02-28T21:03:31.876Z,41.41
2019-02-28T21:06:07.666Z,42.43
2019-02-28T21:08:42.946Z,42.50
2019-02-28T21:11:18.958Z,41.99
2019-02-28T21:13:53.853Z,42.30
2019-02-28T21:16:29.999Z,42.58
2019-02-28T21:19:05.311Z,41.61
2019-02-28T21:21:39.834Z,42.28
2019-02-28T21:24:14.801Z,42.54
2019-02-28T21:26:49.312Z,43.36
2019-02-28T21:29:23.839Z,43.09
2019-02-28T21:31:58.642Z,43.37
2019-02-28T21:34:32.670Z,43.58
2019-02-28T21:37:10.852Z,43.99
2019-02-28T21:39:45.580Z,42.75
2019-02-28T21:42:21.564Z,42.76
2019-02-28T21:45:00.411Z,43.02
2019-02-28T21:47:35.316Z,43.13
2019-02-28T21:50:12.128Z,43.13
2019-02-28T21:52:46.940Z,42.64
2019-02-28T21:55:21.397Z,43.38
2019-02-28T21:57:56.176Z,43.32
2019-02-28T22:00:30.838Z,43.00
2019-02-28T22:03:06.551Z,43.49
2019-02-28T22:05:40.550Z,42.95
2019-02-28T22:08:14.486Z,43.44
2019-02-28T22:10:50.125Z,43.80
2019-02-28T22:13:24.929Z,43.80
2019-02-28T22:15:59.622Z,43.73
2019-02-28T22:18:33.636Z,43.42
2019-02-28T22:21:09.854Z,45.70
2019-02-28T22:23:44.821Z,45.70
2019-02-28T22:26:19.563Z,45.14
2019-02-28T22:28:53.596Z,45.16
2019-02-28T22:31:48.690Z,45.85
2019-02-28T22:34:52.004Z,45.85
2019-02-28T22:37:27.065Z,45.40
2019-02-28T22:40:02.079Z,45.53
2019-02-28T22:42:38.663Z,45.20
2019-02-28T22:45:12.428Z,45.16
2019-02-28T22:47:46.970Z,44.95
2019-02-28T22:50:21.629Z,45.27
2019-02-28T22:52:56.334Z,46.24
2019-02-28T22:55:31.127Z,45.65
2019-02-28T22:58:10.130Z,45.65
2019-02-28T23:01:04.311Z,46.86
2019-02-28T23:03:38.627Z,47.70
2019-02-28T23:06:13.850Z,49.00
2019-02-28T23:08:48.506Z,49.00
2019-02-28T23:11:23.309Z,49.65
2019-02-28T23:13:58.132Z,49.74
2019-02-28T23:16:33.355Z,51.41
2019-02-28T23:19:08.319Z,57.32
2019-02-28T23:21:42.646Z,57.32
2019-02-28T23:24:16.463Z,56.06
2019-02-28T23:27:16.702Z,57.31
2019-02-28T23:30:18.542Z,57.03
2019-02-28T23:33:01.156Z,56.06
2019-02-28T23:35:40.844Z,56.06
2019-02-28T23:38:16.326Z,55.54
2019-02-28T23:40:51.111Z,56.97
2019-02-28T23:43:25.891Z,56.13
2019-02-28T23:46:00.650Z,56.23
2019-02-28T23:48:34.495Z,57.69
2019-02-28T23:51:08.798Z,58.23
2019-02-28T23:53:43.685Z,59.95
2019-02-28T23:56:17.462Z,58.80
2019-02-28T23:58:52.036Z,58.83
